Time,TemperatureF,DewpointF,PressureIn,WindDirection,WindDirectionDegrees,WindSpeedMPH,WindSpeedGustMPH,Humidity,HourlyPrecipIn,Conditions,Clouds,dailyrainin,SoftwareType,DateUTC
2013-05-25 00:01:00,75.7,67.7,30.14,NNE,29,0.0,0.0,76,0.00,,,0.00,WUHU216PEETBRO,2013-05-25 04:01:00,
2013-05-25 00:06:00,75.5,67.7,30.14,NNE,29,0.0,0.0,76,0.00,,,0.00,WUHU216PEETBRO,2013-05-25 04:06:00,
2013-05-25 00:11:00,75.4,67.7,30.14,NNE,29,0.0,0.0,77,0.00,,,0.00,WUHU216PEETBRO,2013-05-25 04:11:00,
2013-05-25 00:16:00,75.3,67.9,30.14,NNE,29,0.0,0.0,78,0.00,,,0.00,WUHU216PEETBRO,2013-05-25 04:16:00,
2013-05-25 00:21:00,75.1,67.7,30.14,NNE,29,0.0,0.0,77,0.00,,,0.00,WUHU216PEETBRO,2013-05-25 04:21:00,
2013-05-25 00:26:00,74.9,67.8,30.14,NNE,29,0.0,0.0,78,0.00,,,0.00,WUHU216PEETBRO,2013-05-25 04:26:00,
2013-05-25 00:31:00,74.9,68.1,30.14,NNE,29,0.0,0.0,79,0.00,,,0.00,WUHU216PEETBRO,2013-05-25 04:31:00,
2013-05-25 00:36:00,74.8,68.1,30.14,NNE,29,0.0,0.0,79,0.00,,,0.00,WUHU216PEETBRO,2013-05-25 04:36:00,
2013-05-25 00:41:00,74.8,68.3,30.14,NNE,29,0.0,0.0,80,0.00,,,0.00,WUHU216PEETBRO,2013-05-25 04:41:00,
2013-05-25 00:46:00,74.8,68.4,30.14,NNE,29,0.0,0.0,80,0.00,,,0.00,WUHU216PEETBRO,2013-05-25 04:46:00,
2013-05-25 00:51:00,74.8,68.6,30.14,NNE,29,0.0,0.0,81,0.00,,,0.00,WUHU216PEETBRO,2013-05-25 04:51:00,
2013-05-25 00:56:00,74.7,68.6,30.14,NNE,29,0.0,0.0,81,0.00,,,0.00,WUHU216PEETBRO,2013-05-25 04:56:00,
2013-05-25 01:01:00,74.7,68.9,30.14,NNE,29,0.0,0.0,82,0.00,,,0.00,WUHU216PEETBRO,2013-05-25 05:01:00,
2013-05-25 01:06:00,74.5,68.8,30.14,NNE,29,0.0,0.0,82,0.00,,,0.00,WUHU216PEETBRO,2013-05-25 05:06:00,
2013-05-25 01:11:00,74.4,68.9,30.14,NNE,29,0.0,0.0,83,0.00,,,0.00,WUHU216PEETBRO,2013-05-25 05:11:00,
2013-05-25 01:16:00,74.3,69.0,30.14,NNE,29,0.0,0.0,83,0.00,,,0.00,WUHU216PEETBRO,2013-05-25 05:16:00,
2013-05-25 01:21:00,74.2,68.9,30.14,NNE,29,0.0,0.0,83,0.00,,,0.00,WUHU216PEETBRO,2013-05-25 05:21:00,
2013-05-25 01:26:00,74.2,69.0,30.14,NNE,29,0.0,0.0,84,0.00,,,0.00,WUHU216PEETBRO,2013-05-25 05:26:00,
2013-05-25 01:31:00,74.2,69.1,30.14,NNE,29,0.0,0.0,84,0.00,,,0.00,WUHU216PEETBRO,2013-05-25 05:31:00,
2013-05-25 01:36:00,74.1,69.0,30.13,NNE,29,0.0,0.0,84,0.00,,,0.00,WUHU216PEETBRO,2013-05-25 05:36:00,
2013-05-25 01:41:00,74.0,69.2,30.14,NE,49,0.0,3.0,85,0.00,,,0.00,WUHU216PEETBRO,2013-05-25 05:41:00,
2013-05-25 01:46:00,74.0,69.2,30.14,NE,49,0.0,3.0,85,0.00,,,0.00,WUHU216PEETBRO,2013-05-25 05:46:00,
2013-05-25 01:51:00,73.9,69.1,30.14,NE,49,0.0,0.0,85,0.00,,,0.00,WUHU216PEETBRO,2013-05-25 05:51:00,
2013-05-25 01:56:00,73.9,69.3,30.14,NE,39,0.0,4.1,85,0.00,,,0.00,WUHU216PEETBRO,2013-05-25 05:56:00,
2013-05-25 02:01:00,73.8,69.3,30.14,NE,39,0.0,4.1,86,0.00,,,0.00,WUHU216PEETBRO,2013-05-25 06:01:00,
2013-05-25 02:06:00,73.7,69.3,30.14,NE,39,0.0,0.0,86,0.00,,,0.00,WUHU216PEETBRO,2013-05-25 06:06:00,
2013-05-25 02:11:00,73.7,69.3,30.13,NE,39,0.0,0.0,86,0.00,,,0.00,WUHU216PEETBRO,2013-05-25 06:11:00,
2013-05-25 02:16:00,73.5,69.2,30.13,NE,39,0.0,0.0,86,0.00,,,0.00,WUHU216PEETBRO,2013-05-25 06:16:00,
2013-05-25 02:21:00,73.5,69.3,30.13,NE,39,0.0,0.0,87,0.00,,,0.00,WUHU216PEETBRO,2013-05-25 06:21:00,
2013-05-25 02:26:00,73.4,69.3,30.13,NE,39,0.0,0.0,87,0.00,,,0.00,WUHU216PEETBRO,2013-05-25 06:26:00,
2013-05-25 02:31:00,73.2,69.4,30.13,NE,39,0.0,0.0,88,0.00,,,0.00,WUHU216PEETBRO,2013-05-25 06:31:00,
2013-05-25 02:36:00,72.7,69.2,30.13,NE,39,0.0,0.0,89,0.00,,,0.00,WUHU216PEETBRO,2013-05-25 06:36:00,
2013-05-25 02:41:00,72.4,69.2,30.13,NE,39,0.0,0.0,90,0.00,,,0.00,WUHU216PEETBRO,2013-05-25 06:41:00,
2013-05-25 02:46:00,72.1,69.1,30.13,NE,39,0.0,0.0,90,0.00,,,0.00,WUHU216PEETBRO,2013-05-25 06:46:00,
2013-05-25 02:51:00,72.2,69.3,30.13,NE,39,0.0,0.0,91,0.00,,,0.00,WUHU216PEETBRO,2013-05-25 06:51:00,
2013-05-25 02:56:00,72.3,69.4,30.13,NE,39,0.0,0.0,91,0.00,,,0.00,WUHU216PEETBRO,2013-05-25 06:56:00,
2013-05-25 03:01:00,72.3,69.4,30.13,NE,39,0.0,0.0,91,0.00,,,0.00,WUHU216PEETBRO,2013-05-25 07:01:00,
2013-05-25 03:06:00,72.1,69.3,30.13,NE,39,0.0,0.0,91,0.00,,,0.00,WUHU216PEETBRO,2013-05-25 07:06:00,
2013-05-25 03:11:00,72.1,69.4,30.13,NE,39,0.0,0.0,91,0.00,,,0.00,WUHU216PEETBRO,2013-05-25 07:11:00,
2013-05-25 03:16:00,72.1,69.6,30.13,NE,39,0.0,0.0,92,0.00,,,0.00,WUHU216PEETBRO,2013-05-25 07:16:00,
2013-05-25 03:21:00,72.1,69.7,30.13,NE,39,0.0,0.0,92,0.00,,,0.00,WUHU216PEETBRO,2013-05-25 07:21:00,
2013-05-25 03:26:00,72.0,69.6,30.13,NE,39,0.0,0.0,92,0.00,,,0.00,WUHU216PEETBRO,2013-05-25 07:26:00,
2013-05-25 03:31:00,71.9,69.5,30.12,NE,39,0.0,0.0,92,0.00,,,0.00,WUHU216PEETBRO,2013-05-25 07:31:00,
2013-05-25 03:36:00,71.8,69.5,30.12,NE,39,0.0,0.0,93,0.00,,,0.00,WUHU216PEETBRO,2013-05-25 07:36:00,
2013-05-25 03:41:00,71.6,69.4,30.12,NE,39,0.0,0.0,93,0.00,,,0.00,WUHU216PEETBRO,2013-05-25 07:41:00,
2013-05-25 03:46:00,71.4,69.3,30.12,NE,39,0.0,0.0,93,0.00,,,0.00,WUHU216PEETBRO,2013-05-25 07:46:00,
2013-05-25 03:51:00,71.3,69.3,30.12,NE,39,0.0,0.0,94,0.00,,,0.00,WUHU216PEETBRO,2013-05-25 07:51:00,
2013-05-25 03:56:00,71.2,69.2,30.12,NE,39,0.0,0.0,94,0.00,,,0.00,WUHU216PEETBRO,2013-05-25 07:56:00,
2013-05-25 04:01:00,71.3,69.4,30.12,NE,39,0.0,0.0,94,0.00,,,0.00,WUHU216PEETBRO,2013-05-25 08:01:00,
2013-05-25 04:06:00,71.0,69.1,30.12,NE,39,0.0,0.0,94,0.00,,,0.00,WUHU216PEETBRO,2013-05-25 08:06:00,
2013-05-25 04:11:00,70.9,69.1,30.12,NE,39,0.0,0.0,94,0.00,,,0.00,WUHU216PEETBRO,2013-05-25 08:11:00,
2013-05-25 04:16:00,70.8,69.0,30.12,NE,39,0.0,0.0,94,0.00,,,0.00,WUHU216PEETBRO,2013-05-25 08:16:00,
2013-05-25 04:21:00,70.7,68.9,30.12,NE,39,0.0,0.0,94,0.00,,,0.00,WUHU216PEETBRO,2013-05-25 08:21:00,
2013-05-25 04:26:00,70.8,69.1,30.12,NE,39,0.0,0.0,94,0.00,,,0.00,WUHU216PEETBRO,2013-05-25 08:26:00,
2013-05-25 04:31:00,71.0,69.3,30.12,NE,39,0.0,0.0,95,0.00,,,0.00,WUHU216PEETBRO,2013-05-25 08:31:00,
2013-05-25 04:36:00,71.1,69.4,30.12,NE,39,0.0,0.0,94,0.00,,,0.00,WUHU216PEETBRO,2013-05-25 08:36:00,
2013-05-25 04:41:00,71.3,69.6,30.12,NE,39,0.0,0.0,94,0.00,,,0.00,WUHU216PEETBRO,2013-05-25 08:41:00,
2013-05-25 04:46:00,71.3,69.5,30.12,NE,39,0.0,0.0,94,0.00,,,0.00,WUHU216PEETBRO,2013-05-25 08:46:00,
2013-05-25 04:51:00,71.2,69.4,30.12,NE,39,0.0,0.0,94,0.00,,,0.00,WUHU216PEETBRO,2013-05-25 08:51:00,
2013-05-25 04:56:00,71.1,69.3,30.12,NE,39,0.0,0.0,94,0.00,,,0.00,WUHU216PEETBRO,2013-05-25 08:56:00,
2013-05-25 05:01:00,70.8,69.1,30.13,NE,39,0.0,0.0,94,0.00,,,0.00,WUHU216PEETBRO,2013-05-25 09:01:00,
2013-05-25 05:06:00,70.6,68.9,30.13,NE,39,0.0,0.0,95,0.00,,,0.00,WUHU216PEETBRO,2013-05-25 09:06:00,
2013-05-25 05:11:00,70.5,69.0,30.13,NE,39,0.0,0.0,95,0.00,,,0.00,WUHU216PEETBRO,2013-05-25 09:11:00,
2013-05-25 05:16:00,70.3,68.8,30.13,NE,39,0.0,0.0,95,0.00,,,0.00,WUHU216PEETBRO,2013-05-25 09:16:00,
2013-05-25 05:21:00,70.2,68.7,30.13,NE,39,0.0,0.0,95,0.00,,,0.00,WUHU216PEETBRO,2013-05-25 09:21:00,
2013-05-25 05:26:00,70.2,68.7,30.13,NE,39,0.0,0.0,95,0.00,,,0.00,WUHU216PEETBRO,2013-05-25 09:26:00,
2013-05-25 05:31:00,70.1,68.7,30.13,NE,39,0.0,0.0,95,0.00,,,0.00,WUHU216PEETBRO,2013-05-25 09:31:00,
2013-05-25 05:36:00,69.9,68.5,30.13,NE,39,0.0,0.0,95,0.00,,,0.00,WUHU216PEETBRO,2013-05-25 09:36:00,
2013-05-25 05:41:00,69.9,68.5,30.13,NE,39,0.0,0.0,96,0.00,,,0.00,WUHU216PEETBRO,2013-05-25 09:41:00,
2013-05-25 05:46:00,70.0,68.7,30.13,NE,39,0.0,0.0,96,0.00,,,0.00,WUHU216PEETBRO,2013-05-25 09:46:00,
2013-05-25 05:51:00,69.9,68.5,30.13,NE,39,0.0,0.0,95,0.00,,,0.00,WUHU216PEETBRO,2013-05-25 09:51:00,
2013-05-25 05:56:00,70.0,68.7,30.13,NE,39,0.0,0.0,96,0.00,,,0.00,WUHU216PEETBRO,2013-05-25 09:56:00,
2013-05-25 06:01:00,69.9,68.6,30.14,NE,39,0.0,0.0,96,0.00,,,0.00,WUHU216PEETBRO,2013-05-25 10:01:00,
2013-05-25 06:06:00,69.8,68.5,30.14,NE,39,0.0,0.0,96,0.00,,,0.00,WUHU216PEETBRO,2013-05-25 10:06:00,
2013-05-25 06:11:00,69.8,68.5,30.14,NE,39,0.0,0.0,96,0.00,,,0.00,WUHU216PEETBRO,2013-05-25 10:11:00,
2013-05-25 06:16:00,69.7,68.5,30.14,NE,39,0.0,0.0,96,0.00,,,0.00,WUHU216PEETBRO,2013-05-25 10:16:00,
2013-05-25 06:21:00,69.7,68.5,30.15,NE,39,0.0,0.0,96,0.00,,,0.00,WUHU216PEETBRO,2013-05-25 10:21:00,
2013-05-25 06:26:00,69.7,68.5,30.15,NE,39,0.0,0.0,96,0.00,,,0.00,WUHU216PEETBRO,2013-05-25 10:26:00,
2013-05-25 06:31:00,69.5,68.3,30.15,NE,39,0.0,0.0,96,0.00,,,0.00,WUHU216PEETBRO,2013-05-25 10:31:00,
2013-05-25 06:36:00,69.5,68.3,30.15,NE,39,0.0,0.0,96,0.00,,,0.00,WUHU216PEETBRO,2013-05-25 10:36:00,
2013-05-25 06:42:00,69.4,68.2,30.15,NE,39,0.0,0.0,96,0.00,,,0.00,WUHU216PEETBRO,2013-05-25 10:42:00,
2013-05-25 06:47:00,69.4,68.2,30.16,NE,39,0.0,0.0,96,0.00,,,0.00,WUHU216PEETBRO,2013-05-25 10:47:00,
2013-05-25 06:52:00,69.5,68.3,30.16,NE,39,0.0,0.0,96,0.00,,,0.00,WUHU216PEETBRO,2013-05-25 10:52:00,
2013-05-25 06:57:00,69.5,68.3,30.16,NE,39,0.0,0.0,96,0.00,,,0.00,WUHU216PEETBRO,2013-05-25 10:57:00,
2013-05-25 07:02:00,69.4,68.3,30.16,NE,39,0.0,0.0,96,0.00,,,0.00,WUHU216PEETBRO,2013-05-25 11:02:00,
2013-05-25 07:07:00,69.5,68.4,30.16,NE,39,0.0,0.0,96,0.00,,,0.00,WUHU216PEETBRO,2013-05-25 11:07:00,
2013-05-25 07:12:00,69.5,68.4,30.17,NE,39,0.0,0.0,96,0.00,,,0.00,WUHU216PEETBRO,2013-05-25 11:12:00,
2013-05-25 07:17:00,69.6,68.5,30.17,NE,39,0.0,0.0,96,0.00,,,0.00,WUHU216PEETBRO,2013-05-25 11:17:00,
2013-05-25 07:22:00,69.7,68.6,30.17,NE,39,0.0,0.0,96,0.00,,,0.00,WUHU216PEETBRO,2013-05-25 11:22:00,
2013-05-25 07:27:00,69.9,68.7,30.17,NE,39,0.0,0.0,96,0.00,,,0.00,WUHU216PEETBRO,2013-05-25 11:27:00,
2013-05-25 07:32:00,70.0,68.8,30.17,NE,39,0.0,0.0,96,0.00,,,0.00,WUHU216PEETBRO,2013-05-25 11:32:00,
2013-05-25 07:37:00,70.2,68.9,30.17,NE,39,0.0,0.0,96,0.00,,,0.00,WUHU216PEETBRO,2013-05-25 11:37:00,
2013-05-25 07:42:00,70.4,69.0,30.18,NE,39,0.0,0.0,95,0.00,,,0.00,WUHU216PEETBRO,2013-05-25 11:42:00,
2013-05-25 07:47:00,70.6,69.1,30.18,NE,39,0.0,0.0,95,0.00,,,0.00,WUHU216PEETBRO,2013-05-25 11:47:00,
2013-05-25 07:52:00,70.9,69.3,30.18,NE,39,0.0,0.0,95,0.00,,,0.00,WUHU216PEETBRO,2013-05-25 11:52:00,
2013-05-25 07:57:00,71.4,69.7,30.18,NE,39,0.0,0.0,94,0.00,,,0.00,WUHU216PEETBRO,2013-05-25 11:57:00,
2013-05-25 08:02:00,71.7,69.7,30.18,NE,39,0.0,0.0,93,0.00,,,0.00,WUHU216PEETBRO,2013-05-25 12:02:00,
2013-05-25 08:07:00,72.1,69.8,30.19,NE,39,0.0,0.0,93,0.00,,,0.00,WUHU216PEETBRO,2013-05-25 12:07:00,
2013-05-25 08:12:00,72.5,69.8,30.19,North,0,1.8,4.6,91,0.00,,,0.00,WUHU216PEETBRO,2013-05-25 12:12:00,
2013-05-25 08:17:00,72.9,69.5,30.19,NNE,23,0.0,5.8,89,0.00,,,0.00,WUHU216PEETBRO,2013-05-25 12:17:00,
2013-05-25 08:22:00,73.4,68.5,30.19,North,8,3.5,7.3,85,0.00,,,0.00,WUHU216PEETBRO,2013-05-25 12:22:00,
2013-05-25 08:27:00,73.8,68.0,30.19,North,359,1.8,7.3,82,0.00,,,0.00,WUHU216PEETBRO,2013-05-25 12:27:00,
2013-05-25 08:32:00,74.2,67.3,30.19,North,350,3.5,7.1,79,0.00,,,0.00,WUHU216PEETBRO,2013-05-25 12:32:00,
2013-05-25 08:37:00,74.7,67.7,30.20,NE,40,0.0,6.8,79,0.00,,,0.00,WUHU216PEETBRO,2013-05-25 12:37:00,
2013-05-25 08:42:00,75.0,67.0,30.20,NNE,23,3.4,7.2,76,0.00,,,0.00,WUHU216PEETBRO,2013-05-25 12:42:00,
2013-05-25 08:47:00,75.5,66.1,30.20,North,359,7.0,9.3,72,0.00,,,0.00,WUHU216PEETBRO,2013-05-25 12:47:00,
2013-05-25 08:52:00,75.9,66.2,30.20,North,354,3.2,9.3,72,0.00,,,0.00,WUHU216PEETBRO,2013-05-25 12:52:00,
2013-05-25 08:57:00,76.3,66.6,30.20,NE,47,8.0,8.5,72,0.00,,,0.00,WUHU216PEETBRO,2013-05-25 12:57:00,
2013-05-25 09:02:00,76.8,65.8,30.21,NE,56,6.3,8.5,68,0.00,,,0.00,WUHU216PEETBRO,2013-05-25 13:02:00,
2013-05-25 09:07:00,77.3,65.9,30.21,North,357,4.6,8.1,67,0.00,,,0.00,WUHU216PEETBRO,2013-05-25 13:07:00,
2013-05-25 09:12:00,77.7,65.8,30.21,NE,55,0.0,9.5,66,0.00,,,0.00,WUHU216PEETBRO,2013-05-25 13:12:00,
2013-05-25 09:17:00,78.0,66.5,30.21,North,359,6.4,9.5,67,0.00,,,0.00,WUHU216PEETBRO,2013-05-25 13:17:00,
2013-05-25 09:22:00,78.1,66.2,30.22,NNE,26,4.7,11.0,66,0.00,,,0.00,WUHU216PEETBRO,2013-05-25 13:22:00,
2013-05-25 09:27:00,78.2,66.1,30.22,NNE,19,6.6,11.0,66,0.00,,,0.00,WUHU216PEETBRO,2013-05-25 13:27:00,
2013-05-25 09:32:00,78.7,66.0,30.22,North,354,9.0,10.9,65,0.00,,,0.00,WUHU216PEETBRO,2013-05-25 13:32:00,
2013-05-25 09:37:00,78.9,66.2,30.22,North,7,6.8,10.9,65,0.00,,,0.00,WUHU216PEETBRO,2013-05-25 13:37:00,
2013-05-25 09:42:00,79.1,65.8,30.22,ENE,71,8.3,10.7,63,0.00,,,0.00,WUHU216PEETBRO,2013-05-25 13:42:00,
2013-05-25 09:47:00,79.5,65.7,30.23,NE,47,8.8,12.4,62,0.00,,,0.00,WUHU216PEETBRO,2013-05-25 13:47:00,
2013-05-25 09:53:00,80.0,65.5,30.23,ENE,74,6.8,12.4,61,0.00,,,0.00,WUHU216PEETBRO,2013-05-25 13:53:00,
2013-05-25 09:58:00,80.3,66.0,30.23,NNW,338,5.7,12.0,61,0.00,,,0.00,WUHU216PEETBRO,2013-05-25 13:58:00,
2013-05-25 10:03:00,80.5,65.9,30.23,North,8,3.5,10.9,61,0.00,,,0.00,WUHU216PEETBRO,2013-05-25 14:03:00,
2013-05-25 10:08:00,80.3,66.3,30.23,NE,55,4.3,11.3,62,0.00,,,0.00,WUHU216PEETBRO,2013-05-25 14:08:00,
2013-05-25 10:13:00,80.5,65.9,30.23,NNE,22,4.7,15.4,61,0.00,,,0.00,WUHU216PEETBRO,2013-05-25 14:13:00,
2013-05-25 10:18:00,80.5,65.5,30.23,NE,55,9.2,15.4,60,0.00,,,0.00,WUHU216PEETBRO,2013-05-25 14:18:00,
2013-05-25 10:23:00,80.7,63.1,30.23,NE,39,12.1,15.5,55,0.00,,,0.00,WUHU216PEETBRO,2013-05-25 14:23:00,
2013-05-25 10:28:00,81.3,61.6,30.23,NNW,347,6.7,15.5,51,0.00,,,0.00,WUHU216PEETBRO,2013-05-25 14:28:00,
2013-05-25 10:33:00,82.0,61.7,30.23,ENE,64,6.5,14.0,50,0.00,,,0.00,WUHU216PEETBRO,2013-05-25 14:33:00,
2013-05-25 10:38:00,82.4,61.8,30.23,NE,46,0.0,12.3,50,0.00,,,0.00,WUHU216PEETBRO,2013-05-25 14:38:00,
2013-05-25 10:43:00,82.4,62.0,30.23,NNE,32,6.6,13.9,50,0.00,,,0.00,WUHU216PEETBRO,2013-05-25 14:43:00,
2013-05-25 10:48:00,82.0,61.4,30.23,NE,39,6.2,13.9,50,0.00,,,0.00,WUHU216PEETBRO,2013-05-25 14:48:00,
2013-05-25 10:53:00,81.9,62.9,30.23,East,88,9.9,13.5,52,0.00,,,0.00,WUHU216PEETBRO,2013-05-25 14:53:00,
2013-05-25 10:58:00,81.4,62.0,30.23,ENE,63,9.8,12.3,52,0.00,,,0.00,WUHU216PEETBRO,2013-05-25 14:58:00,
2013-05-25 11:03:00,81.5,62.2,30.23,ENE,71,9.0,10.4,52,0.00,,,0.00,WUHU216PEETBRO,2013-05-25 15:03:00,
2013-05-25 11:08:00,81.9,62.6,30.23,East,91,5.8,14.5,52,0.00,,,0.00,WUHU216PEETBRO,2013-05-25 15:08:00,
2013-05-25 11:13:00,81.4,62.6,30.24,North,352,18.4,18.4,53,0.00,,,0.00,WUHU216PEETBRO,2013-05-25 15:13:00,
2013-05-25 11:18:00,81.7,62.1,30.24,ENE,67,9.8,18.4,51,0.00,,,0.00,WUHU216PEETBRO,2013-05-25 15:18:00,
2013-05-25 11:23:00,81.8,62.1,30.24,NNE,31,9.9,13.6,51,0.00,,,0.00,WUHU216PEETBRO,2013-05-25 15:23:00,
2013-05-25 11:28:00,82.5,62.2,30.24,NE,45,8.6,13.6,50,0.00,,,0.00,WUHU216PEETBRO,2013-05-25 15:28:00,
2013-05-25 11:33:00,82.7,60.7,30.24,NE,43,10.6,11.7,47,0.00,,,0.00,WUHU216PEETBRO,2013-05-25 15:33:00,
2013-05-25 11:38:00,83.3,61.8,30.24,ENE,57,10.1,14.9,48,0.00,,,0.00,WUHU216PEETBRO,2013-05-25 15:38:00,
2013-05-25 11:43:00,82.4,62.0,30.24,ENE,57,5.6,14.9,50,0.00,,,0.00,WUHU216PEETBRO,2013-05-25 15:43:00,
2013-05-25 11:48:00,82.4,61.6,30.24,NE,47,10.1,14.3,49,0.00,,,0.00,WUHU216PEETBRO,2013-05-25 15:48:00,
2013-05-25 11:53:00,83.1,61.0,30.24,NE,53,11.6,13.0,47,0.00,,,0.00,WUHU216PEETBRO,2013-05-25 15:53:00,
2013-05-25 11:58:00,83.3,61.8,30.24,NE,42,13.6,13.6,48,0.00,,,0.00,WUHU216PEETBRO,2013-05-25 15:58:00,
2013-05-25 12:03:00,82.6,61.3,30.24,North,0,10.0,13.6,48,0.00,,,0.00,WUHU216PEETBRO,2013-05-25 16:03:00,
2013-05-25 12:08:00,83.0,61.7,30.24,NE,40,11.5,12.6,49,0.00,,,0.00,WUHU216PEETBRO,2013-05-25 16:08:00,
2013-05-25 12:13:00,83.0,61.9,30.24,NNE,29,7.3,12.4,49,0.00,,,0.00,WUHU216PEETBRO,2013-05-25 16:13:00,
2013-05-25 12:18:00,83.1,62.6,30.24,NE,47,10.5,15.2,50,0.00,,,0.00,WUHU216PEETBRO,2013-05-25 16:18:00,
2013-05-25 12:23:00,83.1,60.8,30.24,NE,56,12.7,15.2,47,0.00,,,0.00,WUHU216PEETBRO,2013-05-25 16:23:00,
2013-05-25 12:28:00,83.7,61.5,30.24,NE,49,9.4,13.0,47,0.00,,,0.00,WUHU216PEETBRO,2013-05-25 16:28:00,
2013-05-25 12:33:00,83.2,62.1,30.24,North,0,9.1,15.0,49,0.00,,,0.00,WUHU216PEETBRO,2013-05-25 16:33:00,
2013-05-25 12:38:00,82.6,63.0,30.24,NE,45,9.5,15.0,51,0.00,,,0.00,WUHU216PEETBRO,2013-05-25 16:38:00,
2013-05-25 12:43:00,83.0,62.6,30.24,NE,45,9.6,14.1,50,0.00,,,0.00,WUHU216PEETBRO,2013-05-25 16:43:00,
2013-05-25 12:48:00,82.8,61.9,30.24,North,359,3.5,14.1,49,0.00,,,0.00,WUHU216PEETBRO,2013-05-25 16:48:00,
2013-05-25 12:53:00,83.5,61.8,30.24,East,79,5.7,14.0,48,0.00,,,0.00,WUHU216PEETBRO,2013-05-25 16:53:00,
2013-05-25 12:58:00,83.6,61.9,30.24,ENE,70,7.0,15.7,48,0.00,,,0.00,WUHU216PEETBRO,2013-05-25 16:58:00,
2013-05-25 13:03:00,83.2,62.3,30.24,NNW,344,9.2,15.7,49,0.00,,,0.00,WUHU216PEETBRO,2013-05-25 17:03:00,
2013-05-25 13:08:00,82.4,61.5,30.24,NNE,14,5.8,16.9,49,0.00,,,0.00,WUHU216PEETBRO,2013-05-25 17:08:00,
2013-05-25 13:13:00,82.9,62.0,30.24,NE,43,11.2,16.9,49,0.00,,,0.00,WUHU216PEETBRO,2013-05-25 17:13:00,
2013-05-25 13:18:00,82.7,62.5,30.24,ESE,122,8.2,17.0,50,0.00,,,0.00,WUHU216PEETBRO,2013-05-25 17:18:00,
2013-05-25 13:23:00,82.9,61.2,30.24,North,2,6.0,17.0,48,0.00,,,0.00,WUHU216PEETBRO,2013-05-25 17:23:00,
2013-05-25 13:28:00,83.6,60.7,30.24,ENE,74,9.3,18.5,46,0.00,,,0.00,WUHU216PEETBRO,2013-05-25 17:28:00,
2013-05-25 13:33:00,84.2,60.8,30.23,NE,50,8.5,18.5,45,0.00,,,0.00,WUHU216PEETBRO,2013-05-25 17:33:00,
2013-05-25 13:38:00,84.5,60.6,30.23,ENE,76,10.8,14.4,45,0.00,,,0.00,WUHU216PEETBRO,2013-05-25 17:38:00,
2013-05-25 13:43:00,84.2,61.5,30.23,ENE,62,6.5,14.4,46,0.00,,,0.00,WUHU216PEETBRO,2013-05-25 17:43:00,
2013-05-25 13:48:00,84.2,60.8,30.23,ENE,66,6.1,17.9,45,0.00,,,0.00,WUHU216PEETBRO,2013-05-25 17:48:00,
2013-05-25 13:53:00,84.0,60.6,30.23,East,79,11.4,17.9,45,0.00,,,0.00,WUHU216PEETBRO,2013-05-25 17:53:00,
2013-05-25 13:58:00,83.8,60.3,30.23,NNE,28,6.8,15.0,45,0.00,,,0.00,WUHU216PEETBRO,2013-05-25 17:58:00,
2013-05-25 14:03:00,84.2,59.6,30.22,NE,47,9.4,11.9,43,0.00,,,0.00,WUHU216PEETBRO,2013-05-25 18:03:00,
2013-05-25 14:08:00,84.2,60.5,30.22,South,169,3.0,12.7,45,0.00,,,0.00,WUHU216PEETBRO,2013-05-25 18:08:00,
2013-05-25 14:13:00,84.5,60.3,30.22,ENE,74,13.7,13.7,44,0.00,,,0.00,WUHU216PEETBRO,2013-05-25 18:13:00,
2013-05-25 14:18:00,84.9,60.9,30.22,NNE,31,7.3,14.3,45,0.00,,,0.00,WUHU216PEETBRO,2013-05-25 18:18:00,
2013-05-25 14:23:00,85.4,60.4,30.22,NE,50,10.0,16.3,43,0.00,,,0.00,WUHU216PEETBRO,2013-05-25 18:23:00,
2013-05-25 14:28:00,85.2,59.9,30.22,NE,50,7.8,16.9,43,0.00,,,0.00,WUHU216PEETBRO,2013-05-25 18:28:00,
2013-05-25 14:33:00,84.6,60.4,30.22,SSE,152,5.8,16.9,44,0.00,,,0.00,WUHU216PEETBRO,2013-05-25 18:33:00,
2013-05-25 14:38:00,84.3,60.3,30.22,NNE,23,11.6,14.0,44,0.00,,,0.00,WUHU216PEETBRO,2013-05-25 18:38:00,
2013-05-25 14:43:00,83.5,60.5,30.22,ENE,57,8.3,15.7,46,0.00,,,0.00,WUHU216PEETBRO,2013-05-25 18:43:00,
2013-05-25 14:48:00,83.4,60.1,30.21,ENE,76,4.5,15.7,45,0.00,,,0.00,WUHU216PEETBRO,2013-05-25 18:48:00,
2013-05-25 14:53:00,82.6,59.3,30.21,NNE,25,7.9,15.1,45,0.00,,,0.00,WUHU216PEETBRO,2013-05-25 18:53:00,
2013-05-25 14:58:00,82.2,61.2,30.21,NNE,16,8.8,13.1,49,0.00,,,0.00,WUHU216PEETBRO,2013-05-25 18:58:00,
2013-05-25 15:03:00,82.9,59.9,30.21,NE,36,9.3,14.2,46,0.00,,,0.00,WUHU216PEETBRO,2013-05-25 19:03:00,
2013-05-25 15:08:00,82.9,59.7,30.21,NE,52,5.3,14.3,45,0.00,,,0.00,WUHU216PEETBRO,2013-05-25 19:08:00,
2013-05-25 15:13:00,82.6,59.8,30.21,ENE,57,12.6,14.3,46,0.00,,,0.00,WUHU216PEETBRO,2013-05-25 19:13:00,
2013-05-25 15:18:00,83.0,58.9,30.21,NE,50,10.4,14.7,44,0.00,,,0.00,WUHU216PEETBRO,2013-05-25 19:18:00,
2013-05-25 15:23:00,82.9,58.6,30.21,ENE,62,8.4,14.7,44,0.00,,,0.00,WUHU216PEETBRO,2013-05-25 19:23:00,
2013-05-25 15:28:00,83.4,59.2,30.20,East,79,9.2,12.0,44,0.00,,,0.00,WUHU216PEETBRO,2013-05-25 19:28:00,
2013-05-25 15:33:00,84.1,58.0,30.20,ENE,73,8.7,13.2,41,0.00,,,0.00,WUHU216PEETBRO,2013-05-25 19:33:00,
2013-05-25 15:38:00,84.0,57.6,30.20,NNE,15,3.2,13.2,41,0.00,,,0.00,WUHU216PEETBRO,2013-05-25 19:38:00,
2013-05-25 15:43:00,83.7,57.1,30.20,NE,50,6.9,13.4,41,0.00,,,0.00,WUHU216PEETBRO,2013-05-25 19:43:00,
2013-05-25 15:48:00,83.5,57.4,30.20,NE,35,7.3,13.4,41,0.00,,,0.00,WUHU216PEETBRO,2013-05-25 19:48:00,
2013-05-25 15:53:00,83.4,58.7,30.20,NNE,21,7.9,11.4,43,0.00,,,0.00,WUHU216PEETBRO,2013-05-25 19:53:00,
2013-05-25 15:58:00,84.0,57.8,30.19,NE,36,6.2,12.1,41,0.00,,,0.00,WUHU216PEETBRO,2013-05-25 19:58:00,
2013-05-25 16:03:00,84.2,57.2,30.19,ENE,59,6.8,12.1,40,0.00,,,0.00,WUHU216PEETBRO,2013-05-25 20:03:00,
2013-05-25 16:08:00,84.0,57.0,30.19,North,351,3.4,11.4,40,0.00,,,0.00,WUHU216PEETBRO,2013-05-25 20:08:00,
2013-05-25 16:13:00,84.0,58.0,30.19,NE,40,7.5,11.4,41,0.00,,,0.00,WUHU216PEETBRO,2013-05-25 20:13:00,
2013-05-25 16:18:00,84.3,57.9,30.19,NE,42,14.2,14.2,41,0.00,,,0.00,WUHU216PEETBRO,2013-05-25 20:18:00,
2013-05-25 16:23:00,84.5,58.7,30.19,NE,46,14.6,15.0,42,0.00,,,0.00,WUHU216PEETBRO,2013-05-25 20:23:00,
2013-05-25 16:28:00,83.3,57.6,30.19,ESE,110,4.3,15.0,42,0.00,,,0.00,WUHU216PEETBRO,2013-05-25 20:28:00,
2013-05-25 16:33:00,82.4,57.7,30.19,NNE,32,6.8,13.2,43,0.00,,,0.00,WUHU216PEETBRO,2013-05-25 20:33:00,
2013-05-25 16:38:00,82.1,58.3,30.19,NNE,23,4.6,13.2,44,0.00,,,0.00,WUHU216PEETBRO,2013-05-25 20:38:00,
2013-05-25 16:43:00,81.6,57.6,30.19,SE,125,2.7,12.4,44,0.00,,,0.00,WUHU216PEETBRO,2013-05-25 20:43:00,
2013-05-25 16:48:00,82.1,58.8,30.19,ENE,73,6.1,14.3,45,0.00,,,0.00,WUHU216PEETBRO,2013-05-25 20:48:00,
2013-05-25 16:53:00,82.7,58.0,30.19,NNE,19,9.0,14.7,43,0.00,,,0.00,WUHU216PEETBRO,2013-05-25 20:53:00,
2013-05-25 16:58:00,82.4,57.7,30.19,NE,56,12.1,14.7,43,0.00,,,0.00,WUHU216PEETBRO,2013-05-25 20:58:00,
2013-05-25 17:03:00,82.0,58.0,30.19,NE,49,7.3,14.3,44,0.00,,,0.00,WUHU216PEETBRO,2013-05-25 21:03:00,
2013-05-25 17:08:00,81.5,57.2,30.20,NNE,12,9.7,14.3,44,0.00,,,0.00,WUHU216PEETBRO,2013-05-25 21:08:00,
2013-05-25 17:13:00,81.4,57.9,30.20,NE,52,6.1,13.5,45,0.00,,,0.00,WUHU216PEETBRO,2013-05-25 21:13:00,
2013-05-25 17:18:00,81.4,58.1,30.20,ENE,73,8.7,10.1,45,0.00,,,0.00,WUHU216PEETBRO,2013-05-25 21:18:00,
2013-05-25 17:23:00,81.4,57.1,30.19,NNE,33,6.6,13.1,44,0.00,,,0.00,WUHU216PEETBRO,2013-05-25 21:23:00,
2013-05-25 17:28:00,81.0,56.9,30.19,North,8,4.2,13.1,44,0.00,,,0.00,WUHU216PEETBRO,2013-05-25 21:28:00,
2013-05-25 17:33:00,81.0,57.0,30.19,ESE,107,5.2,11.1,44,0.00,,,0.00,WUHU216PEETBRO,2013-05-25 21:33:00,
2013-05-25 17:38:00,81.3,57.4,30.19,NE,56,8.4,10.6,44,0.00,,,0.00,WUHU216PEETBRO,2013-05-25 21:38:00,
2013-05-25 17:43:00,81.3,58.0,30.19,NNE,29,3.2,12.6,45,0.00,,,0.00,WUHU216PEETBRO,2013-05-25 21:43:00,
2013-05-25 17:48:00,81.4,58.2,30.20,ENE,59,10.9,12.6,45,0.00,,,0.00,WUHU216PEETBRO,2013-05-25 21:48:00,
2013-05-25 17:53:00,81.4,57.1,30.20,NE,56,5.6,13.5,44,0.00,,,0.00,WUHU216PEETBRO,2013-05-25 21:53:00,
2013-05-25 17:58:00,81.4,57.9,30.19,East,86,7.5,13.5,45,0.00,,,0.00,WUHU216PEETBRO,2013-05-25 21:58:00,
2013-05-25 18:03:00,81.2,58.6,30.19,ENE,69,8.3,13.3,46,0.00,,,0.00,WUHU216PEETBRO,2013-05-25 22:03:00,
2013-05-25 18:08:00,81.1,58.3,30.19,NE,50,8.9,15.5,46,0.00,,,0.00,WUHU216PEETBRO,2013-05-25 22:08:00,
2013-05-25 18:13:00,80.7,56.5,30.19,NE,39,8.4,15.5,44,0.00,,,0.00,WUHU216PEETBRO,2013-05-25 22:13:00,
2013-05-25 18:18:00,80.3,55.9,30.20,NE,47,5.8,12.8,43,0.00,,,0.00,WUHU216PEETBRO,2013-05-25 22:18:00,
2013-05-25 18:23:00,80.3,56.0,30.20,North,11,9.8,11.3,43,0.00,,,0.00,WUHU216PEETBRO,2013-05-25 22:23:00,
2013-05-25 18:28:00,80.2,56.6,30.20,ENE,62,6.3,12.6,45,0.00,,,0.00,WUHU216PEETBRO,2013-05-25 22:28:00,
2013-05-25 18:33:00,80.1,57.1,30.20,NE,35,11.3,12.7,45,0.00,,,0.00,WUHU216PEETBRO,2013-05-25 22:33:00,
2013-05-25 18:38:00,80.0,57.1,30.20,NE,47,5.3,12.7,46,0.00,,,0.00,WUHU216PEETBRO,2013-05-25 22:38:00,
2013-05-25 18:43:00,79.8,57.3,30.20,NE,56,4.2,11.6,46,0.00,,,0.00,WUHU216PEETBRO,2013-05-25 22:43:00,
2013-05-25 18:48:00,79.9,56.9,30.20,ENE,57,8.5,11.3,45,0.00,,,0.00,WUHU216PEETBRO,2013-05-25 22:48:00,
2013-05-25 18:53:00,79.8,58.1,30.20,NE,43,8.9,13.4,47,0.00,,,0.00,WUHU216PEETBRO,2013-05-25 22:53:00,
2013-05-25 18:58:00,79.5,57.3,30.20,ENE,57,11.5,13.4,47,0.00,,,0.00,WUHU216PEETBRO,2013-05-25 22:58:00,
2013-05-25 19:03:00,79.3,57.4,30.20,NE,38,7.0,13.2,47,0.00,,,0.00,WUHU216PEETBRO,2013-05-25 23:03:00,
2013-05-25 19:08:00,79.3,57.8,30.20,ENE,69,7.5,13.2,48,0.00,,,0.00,WUHU216PEETBRO,2013-05-25 23:08:00,
2013-05-25 19:13:00,79.1,57.9,30.20,ENE,62,5.3,13.7,48,0.00,,,0.00,WUHU216PEETBRO,2013-05-25 23:13:00,
2013-05-25 19:18:00,78.8,58.3,30.20,East,84,11.3,13.9,49,0.00,,,0.00,WUHU216PEETBRO,2013-05-25 23:18:00,
2013-05-25 19:23:00,78.3,58.2,30.20,NE,50,12.6,13.9,50,0.00,,,0.00,WUHU216PEETBRO,2013-05-25 23:23:00,
2013-05-25 19:28:00,78.1,58.8,30.20,ENE,57,10.4,13.3,51,0.00,,,0.00,WUHU216PEETBRO,2013-05-25 23:28:00,
2013-05-25 19:33:00,78.0,57.9,30.21,NNE,18,5.7,13.3,50,0.00,,,0.00,WUHU216PEETBRO,2013-05-25 23:33:00,
2013-05-25 19:38:00,77.8,57.9,30.21,East,84,6.2,12.6,50,0.00,,,0.00,WUHU216PEETBRO,2013-05-25 23:38:00,
2013-05-25 19:43:00,77.4,57.9,30.21,NNE,29,4.8,11.1,51,0.00,,,0.00,WUHU216PEETBRO,2013-05-25 23:43:00,
2013-05-25 19:48:00,77.2,57.7,30.21,ENE,73,4.2,11.6,51,0.00,,,0.00,WUHU216PEETBRO,2013-05-25 23:48:00,
2013-05-25 19:53:00,77.0,57.9,30.21,ENE,60,3.4,11.6,52,0.00,,,0.00,WUHU216PEETBRO,2013-05-25 23:53:00,
2013-05-25 19:58:00,77.0,58.0,30.21,ENE,62,8.0,11.1,52,0.00,,,0.00,WUHU216PEETBRO,2013-05-25 23:58:00,
2013-05-25 20:03:00,76.7,58.3,30.21,ENE,76,5.8,10.3,53,0.00,,,0.00,WUHU216PEETBRO,2013-05-26 00:03:00,
2013-05-25 20:08:00,76.4,58.1,30.21,ENE,66,0.0,10.3,53,0.00,,,0.00,WUHU216PEETBRO,2013-05-26 00:08:00,
2013-05-25 20:13:00,76.2,58.0,30.21,North,11,4.9,9.6,53,0.00,,,0.00,WUHU216PEETBRO,2013-05-26 00:13:00,
2013-05-25 20:18:00,76.0,58.1,30.21,ENE,57,0.0,9.6,54,0.00,,,0.00,WUHU216PEETBRO,2013-05-26 00:18:00,
2013-05-25 20:23:00,75.8,58.1,30.21,NE,46,0.0,9.9,54,0.00,,,0.00,WUHU216PEETBRO,2013-05-26 00:23:00,
2013-05-25 20:28:00,75.6,58.1,30.21,NE,39,7.0,10.2,54,0.00,,,0.00,WUHU216PEETBRO,2013-05-26 00:28:00,
2013-05-25 20:33:00,75.3,58.2,30.21,ENE,67,0.0,10.2,55,0.00,,,0.00,WUHU216PEETBRO,2013-05-26 00:33:00,
2013-05-25 20:38:00,75.1,58.5,30.21,NE,42,5.2,7.8,56,0.00,,,0.00,WUHU216PEETBRO,2013-05-26 00:38:00,
2013-05-25 20:43:00,74.9,58.5,30.21,ENE,62,0.0,7.6,56,0.00,,,0.00,WUHU216PEETBRO,2013-05-26 00:43:00,
2013-05-25 20:48:00,74.7,58.8,30.21,NNE,32,3.5,6.8,57,0.00,,,0.00,WUHU216PEETBRO,2013-05-26 00:48:00,
2013-05-25 20:53:00,74.4,58.7,30.21,NE,45,6.6,8.1,58,0.00,,,0.00,WUHU216PEETBRO,2013-05-26 00:53:00,
2013-05-25 20:58:00,74.3,59.1,30.21,NNW,341,5.8,8.2,59,0.00,,,0.00,WUHU216PEETBRO,2013-05-26 00:58:00,
2013-05-25 21:03:00,74.1,59.1,30.22,NE,36,6.6,8.2,59,0.00,,,0.00,WUHU216PEETBRO,2013-05-26 01:03:00,
2013-05-25 21:08:00,74.1,59.3,30.22,NNE,29,4.3,7.8,60,0.00,,,0.00,WUHU216PEETBRO,2013-05-26 01:08:00,
2013-05-25 21:13:00,73.9,59.4,30.22,NE,40,6.0,8.8,60,0.00,,,0.00,WUHU216PEETBRO,2013-05-26 01:13:00,
2013-05-25 21:18:00,73.7,59.5,30.22,North,359,3.0,9.3,61,0.00,,,0.00,WUHU216PEETBRO,2013-05-26 01:18:00,
2013-05-25 21:23:00,73.5,59.6,30.22,NE,56,0.0,9.3,61,0.00,,,0.00,WUHU216PEETBRO,2013-05-26 01:23:00,
2013-05-25 21:28:00,73.3,59.5,30.22,NE,39,4.8,8.5,62,0.00,,,0.00,WUHU216PEETBRO,2013-05-26 01:28:00,
2013-05-25 21:33:00,73.2,59.4,30.22,North,7,0.0,8.5,62,0.00,,,0.00,WUHU216PEETBRO,2013-05-26 01:33:00,
2013-05-25 21:38:00,73.0,59.5,30.22,NE,52,6.5,7.3,62,0.00,,,0.00,WUHU216PEETBRO,2013-05-26 01:38:00,
2013-05-25 21:43:00,72.9,59.6,30.22,North,2,0.0,7.3,63,0.00,,,0.00,WUHU216PEETBRO,2013-05-26 01:43:00,
2013-05-25 21:48:00,72.7,59.6,30.22,North,8,0.0,8.3,63,0.00,,,0.00,WUHU216PEETBRO,2013-05-26 01:48:00,
2013-05-25 21:53:00,72.6,59.6,30.23,NE,36,4.4,8.3,63,0.00,,,0.00,WUHU216PEETBRO,2013-05-26 01:53:00,
2013-05-25 21:58:00,72.5,59.7,30.23,NE,35,0.0,6.3,64,0.00,,,0.00,WUHU216PEETBRO,2013-05-26 01:58:00,
2013-05-25 22:03:00,72.4,59.7,30.23,ENE,73,6.0,8.4,64,0.00,,,0.00,WUHU216PEETBRO,2013-05-26 02:03:00,
2013-05-25 22:08:00,72.3,59.6,30.23,ENE,73,5.6,8.4,64,0.00,,,0.00,WUHU216PEETBRO,2013-05-26 02:08:00,
2013-05-25 22:13:00,72.2,59.5,30.23,NNE,28,3.1,8.3,64,0.00,,,0.00,WUHU216PEETBRO,2013-05-26 02:13:00,
2013-05-25 22:18:00,72.0,59.3,30.23,East,81,5.3,7.8,64,0.00,,,0.00,WUHU216PEETBRO,2013-05-26 02:18:00,
2013-05-25 22:23:00,71.9,59.7,30.23,ENE,62,4.8,7.2,65,0.00,,,0.00,WUHU216PEETBRO,2013-05-26 02:23:00,
2013-05-25 22:28:00,71.9,59.6,30.23,ENE,62,0.0,8.5,65,0.00,,,0.00,WUHU216PEETBRO,2013-05-26 02:28:00,
2013-05-25 22:33:00,71.7,59.4,30.24,NE,52,7.3,9.2,65,0.00,,,0.00,WUHU216PEETBRO,2013-05-26 02:33:00,
2013-05-25 22:38:00,71.8,59.5,30.24,North,8,3.3,9.2,65,0.00,,,0.00,WUHU216PEETBRO,2013-05-26 02:38:00,
2013-05-25 22:43:00,71.7,59.5,30.24,NE,50,2.3,7.5,65,0.00,,,0.00,WUHU216PEETBRO,2013-05-26 02:43:00,
2013-05-25 22:48:00,71.6,59.6,30.24,NNE,18,4.3,8.4,65,0.00,,,0.00,WUHU216PEETBRO,2013-05-26 02:48:00,
2013-05-25 22:53:00,71.6,59.8,30.24,NE,47,2.5,8.4,66,0.00,,,0.00,WUHU216PEETBRO,2013-05-26 02:53:00,
2013-05-25 22:58:00,71.5,59.9,30.24,NNE,32,0.0,7.0,66,0.00,,,0.00,WUHU216PEETBRO,2013-05-26 02:58:00,
2013-05-25 23:03:00,71.3,59.7,30.24,NNE,22,4.7,6.6,66,0.00,,,0.00,WUHU216PEETBRO,2013-05-26 03:03:00,
2013-05-25 23:08:00,71.2,59.6,30.25,NNE,26,5.2,6.6,66,0.00,,,0.00,WUHU216PEETBRO,2013-05-26 03:08:00,
2013-05-25 23:13:00,71.1,59.6,30.25,NNE,31,0.0,6.1,67,0.00,,,0.00,WUHU216PEETBRO,2013-05-26 03:13:00,
2013-05-25 23:18:00,71.1,59.6,30.25,NNE,22,2.7,6.3,67,0.00,,,0.00,WUHU216PEETBRO,2013-05-26 03:18:00,
2013-05-25 23:23:00,70.9,59.5,30.25,NNE,21,3.3,6.4,67,0.00,,,0.00,WUHU216PEETBRO,2013-05-26 03:23:00,
2013-05-25 23:28:00,70.8,59.5,30.25,North,7,0.0,8.8,67,0.00,,,0.00,WUHU216PEETBRO,2013-05-26 03:28:00,
2013-05-25 23:33:00,70.7,59.4,30.24,NE,49,0.0,8.8,67,0.00,,,0.00,WUHU216PEETBRO,2013-05-26 03:33:00,
2013-05-25 23:38:00,70.7,59.3,30.24,NNE,15,2.2,7.2,67,0.00,,,0.00,WUHU216PEETBRO,2013-05-26 03:38:00,
2013-05-25 23:43:00,70.6,59.3,30.24,NE,49,3.0,7.2,67,0.00,,,0.00,WUHU216PEETBRO,2013-05-26 03:43:00,
2013-05-25 23:48:00,70.5,59.2,30.24,NNE,31,0.0,7.0,67,0.00,,,0.00,WUHU216PEETBRO,2013-05-26 03:48:00,
2013-05-25 23:53:00,70.5,59.3,30.24,NE,56,0.0,7.0,67,0.00,,,0.00,WUHU216PEETBRO,2013-05-26 03:53:00,
2013-05-25 23:58:00,70.4,59.4,30.24,NE,46,0.0,4.8,68,0.00,,,0.00,WUHU216PEETBRO,2013-05-26 03:58:00,